Hara, Japan

8:07 PM JST on 三月 29, 2017 (GMT +0900)
Takamatsu Shi | | Change Station

高度 0 ft 34.16 °N, 134.10 °E | Updated 12 minutes ago

曇
49.6 °F
体感気温 50 °F
0.0
風 変数 風 から
Gusts 1.2 Mph

今日
高い -- | 低 -- °F
--% 降水確率
昨日
高い -- | 低 -- °F
Precip. -- インチ
気圧 30.15 インチ
視程 6.2 マイル
わずか 3000 ft
やや曇 6000 ft
だいたい曇 8000 ft
体感気温(寒さ) 50 °F
露点温度 41 °F
湿度 71%
降水 0.00 インチ
積雪深 利用不可。
5:56 AM 6:22 PM
三日月, 3% visible
METAR RJOT 291000Z 22003KT 9999 FEW030 SCT060 BKN080 11/05 Q1021
気圧 30.15 インチ
視程 6.2 マイル
わずか 3000 ft
やや曇 6000 ft
だいたい曇 8000 ft
体感気温(寒さ) 50 °F
露点温度 41 °F
湿度 71%
降水 0.00 インチ
積雪深 利用不可。
5:56 AM 6:22 PM
三日月, 3% visible
METAR RJOT 291000Z 22003KT 9999 FEW030 SCT060 BKN080 11/05 Q1021

Get Severe Weather Alerts

Thanks for signing up!

Be on the lookout for a verification email in your inbox.

You'll start receiving the daily forecast at 8 AM.

×

10-Day Weather Forecast

No radar image for this location.
×

Almanac

天文

Mar. 29, 2017 入り
実時間
常用薄明
航海薄明
天文薄明
可視光の長さ
可照時間
Tomorrow will be .
, % of the Moon is Illuminated

今日の極値

Country Highs Country Lows

Community

WunderPhotos

Upload Photos

1,962,540 写真がアップロードされました!

WunderBlog® & News

Nearby

空気品質

  空気品質 大気質指数 汚染物質
Not available.

積雪深

Station Depth 高度

地震活動

Distance Mag. Time & Date
Minimum magnitude displayed is 2.5.

地震活動

Distance Mag. Time & Date
Minimum magnitude displayed is 2.5.

沿岸の水温

地名 気温

Stations

最寄りの気象観測所

観測所位置 温度 体感気温(寒さ) 露点温度 湿度 Precip. 高度 更新日時 タイプする